Portada
METAR-TAF:

METAR-TAF

Aeroports :

São Pedro da Aldeia, Rio de Janeiro, Brasil

latitud: 22-49S, longitud: 042-06W, altitud: 10 m

Observació

L'informe es va fer fa 1 hora i 16 minuts, a les 20:00 UTC
Vent 13 kt del Est/Nord-Est
Temperatura 23°C
Humitat 65%
Pressió 1024 hPa
Visibilitat 10 km o més
Escasses núvols a una alçada de 2500 ft

METAR: SBES 072000Z 07013KT 9999 FEW025 23/16 Q1024

Hora: 18:16 (21:16 UTC)


TAF: manca

Observacions i pronòstics meteorològics de més de 4000 aeroports (METAR i TAF).

Les estacions disponibles són els punts grocs i vermells al mapa.

Posi el ratolí al punt desitjat per veure el nom de l'estació.

Feu clic per veure les observacions i els pronòstics meteorològics.

Per canviar el mapa: feu clic els botons verds amb una creu de color negre per apropar; al botó verd amb un guió per allunyar la imatge; o en les fletxes verdes per a mapes adjacents.


METAR-TAF: